sensor_id;sensor_type;location;lat;lon;timestamp;P1;durP1;ratioP1;P2;durP2;ratioP2
47603;SDS011;33326;51.116;6.900;2023-04-01T00:01:48;5.63;;;1.20;;
47603;SDS011;33326;51.116;6.900;2023-04-01T00:06:51;4.47;;;0.95;;
47603;SDS011;33326;51.116;6.900;2023-04-01T00:11:55;2.47;;;0.73;;
47603;SDS011;33326;51.116;6.900;2023-04-01T00:16:57;2.88;;;0.80;;
47603;SDS011;33326;51.116;6.900;2023-04-01T00:21:59;3.38;;;0.80;;
47603;SDS011;33326;51.116;6.900;2023-04-01T00:27:02;3.22;;;0.88;;
47603;SDS011;33326;51.116;6.900;2023-04-01T00:32:04;4.55;;;1.38;;
47603;SDS011;33326;51.116;6.900;2023-04-01T00:37:06;6.30;;;1.20;;
47603;SDS011;33326;51.116;6.900;2023-04-01T00:42:11;2.15;;;0.98;;
47603;SDS011;33326;51.116;6.900;2023-04-01T00:47:14;3.72;;;0.88;;
47603;SDS011;33326;51.116;6.900;2023-04-01T00:52:17;3.90;;;0.98;;
47603;SDS011;33326;51.116;6.900;2023-04-01T00:57:25;2.78;;;0.90;;
47603;SDS011;33326;51.116;6.900;2023-04-01T01:02:31;4.72;;;0.82;;
47603;SDS011;33326;51.116;6.900;2023-04-01T01:07:35;3.25;;;1.30;;
47603;SDS011;33326;51.116;6.900;2023-04-01T01:12:44;2.08;;;0.57;;
47603;SDS011;33326;51.116;6.900;2023-04-01T01:17:51;2.88;;;1.10;;
47603;SDS011;33326;51.116;6.900;2023-04-01T01:23:16;3.70;;;0.93;;
47603;SDS011;33326;51.116;6.900;2023-04-01T01:28:36;2.60;;;0.80;;
47603;SDS011;33326;51.116;6.900;2023-04-01T01:33:52;2.45;;;0.63;;
47603;SDS011;33326;51.116;6.900;2023-04-01T01:39:05;5.70;;;1.13;;
47603;SDS011;33326;51.116;6.900;2023-04-01T01:44:09;4.10;;;0.90;;
47603;SDS011;33326;51.116;6.900;2023-04-01T01:49:13;2.42;;;0.90;;
47603;SDS011;33326;51.116;6.900;2023-04-01T01:54:19;1.52;;;0.55;;
47603;SDS011;33326;51.116;6.900;2023-04-01T01:59:21;2.75;;;0.60;;
47603;SDS011;33326;51.116;6.900;2023-04-01T02:04:25;4.50;;;1.00;;
47603;SDS011;33326;51.116;6.900;2023-04-01T02:09:29;3.35;;;0.75;;
47603;SDS011;33326;51.116;6.900;2023-04-01T02:14:34;6.82;;;0.90;;
47603;SDS011;33326;51.116;6.900;2023-04-01T02:19:40;5.53;;;1.50;;
47603;SDS011;33326;51.116;6.900;2023-04-01T02:24:49;5.75;;;4.65;;
47603;SDS011;33326;51.116;6.900;2023-04-01T02:29:53;4.93;;;3.72;;
47603;SDS011;33326;51.116;6.900;2023-04-01T02:34:55;9.88;;;4.72;;
47603;SDS011;33326;51.116;6.900;2023-04-01T02:40:01;5.75;;;4.03;;
47603;SDS011;33326;51.116;6.900;2023-04-01T02:45:05;6.50;;;4.15;;
47603;SDS011;33326;51.116;6.900;2023-04-01T02:50:08;3.10;;;2.60;;
47603;SDS011;33326;51.116;6.900;2023-04-01T02:55:12;5.45;;;2.63;;
47603;SDS011;33326;51.116;6.900;2023-04-01T03:00:15;5.13;;;2.47;;
47603;SDS011;33326;51.116;6.900;2023-04-01T03:05:18;3.40;;;1.45;;
47603;SDS011;33326;51.116;6.900;2023-04-01T03:10:21;1.95;;;0.85;;
47603;SDS011;33326;51.116;6.900;2023-04-01T03:15:23;2.60;;;0.80;;
47603;SDS011;33326;51.116;6.900;2023-04-01T03:20:25;2.75;;;1.15;;
47603;SDS011;33326;51.116;6.900;2023-04-01T03:25:28;0.88;;;0.65;;
47603;SDS011;33326;51.116;6.900;2023-04-01T03:30:30;0.88;;;0.55;;
47603;SDS011;33326;51.116;6.900;2023-04-01T03:35:34;1.58;;;0.55;;
47603;SDS011;33326;51.116;6.900;2023-04-01T03:40:38;3.30;;;0.60;;
47603;SDS011;33326;51.116;6.900;2023-04-01T03:45:43;4.55;;;0.80;;
47603;SDS011;33326;51.116;6.900;2023-04-01T03:50:47;1.27;;;0.60;;
47603;SDS011;33326;51.116;6.900;2023-04-01T03:55:50;3.00;;;0.68;;
47603;SDS011;33326;51.116;6.900;2023-04-01T04:00:52;1.88;;;0.57;;
47603;SDS011;33326;51.116;6.900;2023-04-01T04:05:55;1.67;;;0.50;;
47603;SDS011;33326;51.116;6.900;2023-04-01T04:10:58;2.72;;;0.73;;
47603;SDS011;33326;51.116;6.900;2023-04-01T04:16:01;1.73;;;0.50;;
47603;SDS011;33326;51.116;6.900;2023-04-01T04:21:03;1.25;;;0.85;;
47603;SDS011;33326;51.116;6.900;2023-04-01T04:26:08;2.67;;;0.85;;
47603;SDS011;33326;51.116;6.900;2023-04-01T04:31:12;2.58;;;0.80;;
47603;SDS011;33326;51.116;6.900;2023-04-01T04:36:21;1.70;;;0.80;;
47603;SDS011;33326;51.116;6.900;2023-04-01T04:41:26;1.35;;;0.80;;
47603;SDS011;33326;51.116;6.900;2023-04-01T04:46:27;2.67;;;1.17;;
47603;SDS011;33326;51.116;6.900;2023-04-01T04:51:43;2.08;;;1.02;;
47603;SDS011;33326;51.116;6.900;2023-04-01T04:56:47;2.75;;;1.27;;
47603;SDS011;33326;51.116;6.900;2023-04-01T05:01:52;2.47;;;1.30;;
47603;SDS011;33326;51.116;6.900;2023-04-01T05:06:54;1.20;;;0.80;;
47603;SDS011;33326;51.116;6.900;2023-04-01T05:11:59;3.55;;;1.20;;
47603;SDS011;33326;51.116;6.900;2023-04-01T05:17:08;1.88;;;0.70;;
47603;SDS011;33326;51.116;6.900;2023-04-01T05:22:12;2.22;;;0.90;;
47603;SDS011;33326;51.116;6.900;2023-04-01T05:27:18;1.02;;;0.88;;
47603;SDS011;33326;51.116;6.900;2023-04-01T05:32:20;3.45;;;1.15;;
47603;SDS011;33326;51.116;6.900;2023-04-01T05:37:22;3.63;;;1.50;;
47603;SDS011;33326;51.116;6.900;2023-04-01T05:42:25;1.67;;;1.13;;
47603;SDS011;33326;51.116;6.900;2023-04-01T05:47:28;2.10;;;1.25;;
47603;SDS011;33326;51.116;6.900;2023-04-01T05:52:30;4.03;;;2.17;;
47603;SDS011;33326;51.116;6.900;2023-04-01T05:57:39;3.35;;;2.42;;
47603;SDS011;33326;51.116;6.900;2023-04-01T06:02:41;3.35;;;2.55;;
47603;SDS011;33326;51.116;6.900;2023-04-01T06:07:46;3.05;;;2.15;;
47603;SDS011;33326;51.116;6.900;2023-04-01T06:12:55;3.22;;;2.30;;
47603;SDS011;33326;51.116;6.900;2023-04-01T06:18:23;3.58;;;1.90;;
47603;SDS011;33326;51.116;6.900;2023-04-01T06:24:10;3.10;;;1.88;;
47603;SDS011;33326;51.116;6.900;2023-04-01T06:34:55;2.80;;;1.95;;
47603;SDS011;33326;51.116;6.900;2023-04-01T06:40:37;3.47;;;1.70;;
47603;SDS011;33326;51.116;6.900;2023-04-01T06:45:50;4.88;;;1.70;;
47603;SDS011;33326;51.116;6.900;2023-04-01T06:51:18;3.55;;;2.53;;
47603;SDS011;33326;51.116;6.900;2023-04-01T06:56:48;3.60;;;2.13;;
47603;SDS011;33326;51.116;6.900;2023-04-01T07:02:00;2.63;;;2.00;;
47603;SDS011;33326;51.116;6.900;2023-04-01T07:07:09;4.88;;;2.22;;
47603;SDS011;33326;51.116;6.900;2023-04-01T07:12:28;5.65;;;2.85;;
47603;SDS011;33326;51.116;6.900;2023-04-01T07:23:24;4.82;;;2.42;;
47603;SDS011;33326;51.116;6.900;2023-04-01T07:28:36;3.95;;;2.58;;
47603;SDS011;33326;51.116;6.900;2023-04-01T07:33:54;3.40;;;2.33;;
47603;SDS011;33326;51.116;6.900;2023-04-01T07:39:07;4.47;;;2.53;;
47603;SDS011;33326;51.116;6.900;2023-04-01T07:44:32;3.50;;;2.45;;
47603;SDS011;33326;51.116;6.900;2023-04-01T07:49:46;5.55;;;3.05;;
47603;SDS011;33326;51.116;6.900;2023-04-01T07:54:56;6.28;;;3.28;;
47603;SDS011;33326;51.116;6.900;2023-04-01T08:00:06;8.57;;;3.28;;
47603;SDS011;33326;51.116;6.900;2023-04-01T08:05:29;3.83;;;2.55;;
47603;SDS011;33326;51.116;6.900;2023-04-01T08:10:40;3.92;;;2.05;;
47603;SDS011;33326;51.116;6.900;2023-04-01T08:16:15;2.72;;;1.95;;
47603;SDS011;33326;51.116;6.900;2023-04-01T08:21:28;4.82;;;2.80;;
47603;SDS011;33326;51.116;6.900;2023-04-01T08:26:41;4.50;;;2.88;;
47603;SDS011;33326;51.116;6.900;2023-04-01T08:31:48;4.75;;;2.70;;
47603;SDS011;33326;51.116;6.900;2023-04-01T08:36:58;5.10;;;2.50;;
47603;SDS011;33326;51.116;6.900;2023-04-01T08:42:10;4.18;;;2.65;;
47603;SDS011;33326;51.116;6.900;2023-04-01T08:47:50;3.55;;;2.65;;
47603;SDS011;33326;51.116;6.900;2023-04-01T08:53:12;4.85;;;3.42;;
47603;SDS011;33326;51.116;6.900;2023-04-01T09:04:18;3.38;;;2.70;;
47603;SDS011;33326;51.116;6.900;2023-04-01T09:09:32;4.68;;;2.90;;
47603;SDS011;33326;51.116;6.900;2023-04-01T09:15:02;3.25;;;2.83;;
47603;SDS011;33326;51.116;6.900;2023-04-01T09:26:08;5.05;;;3.53;;
47603;SDS011;33326;51.116;6.900;2023-04-01T09:31:37;5.60;;;3.95;;
47603;SDS011;33326;51.116;6.900;2023-04-01T09:37:17;9.60;;;5.68;;
47603;SDS011;33326;51.116;6.900;2023-04-01T09:42:32;6.88;;;5.22;;
47603;SDS011;33326;51.116;6.900;2023-04-01T09:47:56;7.78;;;5.78;;
47603;SDS011;33326;51.116;6.900;2023-04-01T09:53:13;10.68;;;6.97;;
47603;SDS011;33326;51.116;6.900;2023-04-01T10:04:30;11.20;;;7.82;;
47603;SDS011;33326;51.116;6.900;2023-04-01T10:10:22;10.80;;;8.25;;
47603;SDS011;33326;51.116;6.900;2023-04-01T10:21:29;8.73;;;7.00;;
47603;SDS011;33326;51.116;6.900;2023-04-01T10:26:57;6.55;;;5.85;;
47603;SDS011;33326;51.116;6.900;2023-04-01T10:32:44;7.32;;;5.63;;
47603;SDS011;33326;51.116;6.900;2023-04-01T10:38:32;6.85;;;5.72;;
47603;SDS011;33326;51.116;6.900;2023-04-01T10:44:00;13.68;;;8.00;;
47603;SDS011;33326;51.116;6.900;2023-04-01T10:49:23;7.97;;;6.47;;
47603;SDS011;33326;51.116;6.900;2023-04-01T10:54:45;8.32;;;6.53;;
47603;SDS011;33326;51.116;6.900;2023-04-01T11:00:18;9.38;;;5.80;;
47603;SDS011;33326;51.116;6.900;2023-04-01T11:06:06;10.23;;;7.72;;
47603;SDS011;33326;51.116;6.900;2023-04-01T11:23:11;12.85;;;9.00;;
47603;SDS011;33326;51.116;6.900;2023-04-01T11:33:51;14.80;;;11.43;;
47603;SDS011;33326;51.116;6.900;2023-04-01T11:39:11;11.15;;;8.13;;
47603;SDS011;33326;51.116;6.900;2023-04-01T11:44:36;19.10;;;11.80;;
47603;SDS011;33326;51.116;6.900;2023-04-01T11:49:57;11.85;;;8.48;;
47603;SDS011;33326;51.116;6.900;2023-04-01T11:55:25;9.88;;;7.93;;
47603;SDS011;33326;51.116;6.900;2023-04-01T12:06:07;11.57;;;8.43;;
47603;SDS011;33326;51.116;6.900;2023-04-01T12:11:17;9.27;;;7.70;;
47603;SDS011;33326;51.116;6.900;2023-04-01T12:16:28;7.03;;;5.63;;
47603;SDS011;33326;51.116;6.900;2023-04-01T12:21:44;11.50;;;8.52;;
47603;SDS011;33326;51.116;6.900;2023-04-01T12:26:58;12.63;;;9.40;;
47603;SDS011;33326;51.116;6.900;2023-04-01T12:32:09;9.38;;;7.80;;
47603;SDS011;33326;51.116;6.900;2023-04-01T12:37:19;8.90;;;6.75;;
47603;SDS011;33326;51.116;6.900;2023-04-01T12:42:34;9.27;;;7.72;;
47603;SDS011;33326;51.116;6.900;2023-04-01T12:47:53;8.90;;;7.30;;
47603;SDS011;33326;51.116;6.900;2023-04-01T12:53:09;12.40;;;7.10;;
47603;SDS011;33326;51.116;6.900;2023-04-01T12:58:40;10.13;;;8.15;;
47603;SDS011;33326;51.116;6.900;2023-04-01T13:09:35;9.40;;;7.72;;
47603;SDS011;33326;51.116;6.900;2023-04-01T13:15:01;12.60;;;9.55;;
47603;SDS011;33326;51.116;6.900;2023-04-01T13:20:22;11.88;;;9.35;;
47603;SDS011;33326;51.116;6.900;2023-04-01T13:25:38;10.70;;;8.52;;
47603;SDS011;33326;51.116;6.900;2023-04-01T13:30:49;15.90;;;10.57;;
47603;SDS011;33326;51.116;6.900;2023-04-01T13:36:06;15.90;;;10.65;;
47603;SDS011;33326;51.116;6.900;2023-04-01T13:41:18;11.80;;;8.85;;
47603;SDS011;33326;51.116;6.900;2023-04-01T13:46:41;11.52;;;8.52;;
47603;SDS011;33326;51.116;6.900;2023-04-01T13:52:17;11.63;;;8.95;;
47603;SDS011;33326;51.116;6.900;2023-04-01T13:57:52;11.85;;;9.10;;
47603;SDS011;33326;51.116;6.900;2023-04-01T14:08:51;7.95;;;7.15;;
47603;SDS011;33326;51.116;6.900;2023-04-01T14:14:13;9.73;;;8.05;;
47603;SDS011;33326;51.116;6.900;2023-04-01T14:19:28;8.65;;;7.68;;
47603;SDS011;33326;51.116;6.900;2023-04-01T14:24:45;10.63;;;8.25;;
47603;SDS011;33326;51.116;6.900;2023-04-01T14:30:27;9.90;;;8.60;;
47603;SDS011;33326;51.116;6.900;2023-04-01T14:35:55;12.52;;;8.82;;
47603;SDS011;33326;51.116;6.900;2023-04-01T14:41:12;8.05;;;6.72;;
47603;SDS011;33326;51.116;6.900;2023-04-01T14:46:23;7.78;;;5.93;;
47603;SDS011;33326;51.116;6.900;2023-04-01T14:51:38;9.55;;;7.03;;
47603;SDS011;33326;51.116;6.900;2023-04-01T14:56:41;9.75;;;7.80;;
47603;SDS011;33326;51.116;6.900;2023-04-01T15:01:46;7.55;;;5.70;;
47603;SDS011;33326;51.116;6.900;2023-04-01T15:06:59;8.77;;;6.68;;
47603;SDS011;33326;51.116;6.900;2023-04-01T15:12:16;10.23;;;8.10;;
47603;SDS011;33326;51.116;6.900;2023-04-01T15:23:06;13.40;;;9.18;;
47603;SDS011;33326;51.116;6.900;2023-04-01T15:28:19;17.17;;;10.27;;
47603;SDS011;33326;51.116;6.900;2023-04-01T15:33:36;10.75;;;8.27;;
47603;SDS011;33326;51.116;6.900;2023-04-01T15:38:50;10.90;;;7.78;;
47603;SDS011;33326;51.116;6.900;2023-04-01T15:43:54;10.35;;;7.95;;
47603;SDS011;33326;51.116;6.900;2023-04-01T15:48:59;12.70;;;8.05;;
47603;SDS011;33326;51.116;6.900;2023-04-01T15:54:19;9.82;;;6.82;;
47603;SDS011;33326;51.116;6.900;2023-04-01T15:59:33;11.10;;;7.22;;
47603;SDS011;33326;51.116;6.900;2023-04-01T16:04:46;10.30;;;7.47;;
47603;SDS011;33326;51.116;6.900;2023-04-01T16:10:02;8.40;;;6.50;;
47603;SDS011;33326;51.116;6.900;2023-04-01T16:15:20;10.25;;;7.55;;
47603;SDS011;33326;51.116;6.900;2023-04-01T16:20:34;10.07;;;7.27;;
47603;SDS011;33326;51.116;6.900;2023-04-01T16:25:49;19.77;;;10.73;;
47603;SDS011;33326;51.116;6.900;2023-04-01T16:31:00;9.13;;;6.30;;
47603;SDS011;33326;51.116;6.900;2023-04-01T16:36:11;9.25;;;6.68;;
47603;SDS011;33326;51.116;6.900;2023-04-01T16:41:25;11.35;;;7.25;;
47603;SDS011;33326;51.116;6.900;2023-04-01T16:46:33;13.55;;;8.23;;
47603;SDS011;33326;51.116;6.900;2023-04-01T16:51:40;9.32;;;6.63;;
47603;SDS011;33326;51.116;6.900;2023-04-01T16:56:49;10.13;;;7.07;;
47603;SDS011;33326;51.116;6.900;2023-04-01T17:01:57;8.48;;;6.45;;
47603;SDS011;33326;51.116;6.900;2023-04-01T17:07:12;10.88;;;7.32;;
47603;SDS011;33326;51.116;6.900;2023-04-01T17:12:28;11.93;;;7.90;;
47603;SDS011;33326;51.116;6.900;2023-04-01T17:17:42;9.80;;;7.07;;
47603;SDS011;33326;51.116;6.900;2023-04-01T17:22:52;8.70;;;6.15;;
47603;SDS011;33326;51.116;6.900;2023-04-01T17:28:08;6.93;;;5.53;;
47603;SDS011;33326;51.116;6.900;2023-04-01T17:33:35;11.05;;;6.65;;
47603;SDS011;33326;51.116;6.900;2023-04-01T17:39:05;9.35;;;6.47;;
47603;SDS011;33326;51.116;6.900;2023-04-01T17:44:28;10.15;;;6.95;;
47603;SDS011;33326;51.116;6.900;2023-04-01T17:49:41;11.65;;;7.57;;
47603;SDS011;33326;51.116;6.900;2023-04-01T17:54:51;7.85;;;5.53;;
47603;SDS011;33326;51.116;6.900;2023-04-01T18:00:02;8.05;;;5.85;;
47603;SDS011;33326;51.116;6.900;2023-04-01T18:05:20;9.82;;;7.28;;
47603;SDS011;33326;51.116;6.900;2023-04-01T18:10:33;10.98;;;7.50;;
47603;SDS011;33326;51.116;6.900;2023-04-01T18:20:51;10.38;;;6.57;;
47603;SDS011;33326;51.116;6.900;2023-04-01T18:26:02;13.05;;;7.55;;
47603;SDS011;33326;51.116;6.900;2023-04-01T18:31:11;11.50;;;7.47;;
47603;SDS011;33326;51.116;6.900;2023-04-01T18:36:19;11.00;;;7.27;;
47603;SDS011;33326;51.116;6.900;2023-04-01T18:41:28;16.25;;;9.45;;
47603;SDS011;33326;51.116;6.900;2023-04-01T18:46:38;12.05;;;8.40;;
47603;SDS011;33326;51.116;6.900;2023-04-01T18:51:48;9.65;;;7.10;;
47603;SDS011;33326;51.116;6.900;2023-04-01T18:56:59;11.18;;;7.72;;
47603;SDS011;33326;51.116;6.900;2023-04-01T19:02:13;13.70;;;9.05;;
47603;SDS011;33326;51.116;6.900;2023-04-01T19:07:29;14.73;;;8.60;;
47603;SDS011;33326;51.116;6.900;2023-04-01T19:12:48;12.48;;;9.00;;
47603;SDS011;33326;51.116;6.900;2023-04-01T19:18:14;23.67;;;12.77;;
47603;SDS011;33326;51.116;6.900;2023-04-01T19:23:40;24.75;;;13.93;;
47603;SDS011;33326;51.116;6.900;2023-04-01T19:29:06;23.65;;;14.80;;
47603;SDS011;33326;51.116;6.900;2023-04-01T19:34:21;17.75;;;12.00;;
47603;SDS011;33326;51.116;6.900;2023-04-01T19:39:34;23.38;;;13.48;;
47603;SDS011;33326;51.116;6.900;2023-04-01T19:44:47;19.65;;;12.75;;
47603;SDS011;33326;51.116;6.900;2023-04-01T19:50:00;25.27;;;14.68;;
47603;SDS011;33326;51.116;6.900;2023-04-01T19:55:14;36.75;;;16.75;;
47603;SDS011;33326;51.116;6.900;2023-04-01T20:00:29;29.85;;;15.90;;
47603;SDS011;33326;51.116;6.900;2023-04-01T20:05:38;34.70;;;16.67;;
47603;SDS011;33326;51.116;6.900;2023-04-01T20:10:47;35.22;;;17.67;;
47603;SDS011;33326;51.116;6.900;2023-04-01T20:16:01;22.75;;;14.23;;
47603;SDS011;33326;51.116;6.900;2023-04-01T20:21:16;23.00;;;14.25;;
47603;SDS011;33326;51.116;6.900;2023-04-01T20:26:29;22.15;;;13.07;;
47603;SDS011;33326;51.116;6.900;2023-04-01T20:31:34;22.35;;;13.10;;
47603;SDS011;33326;51.116;6.900;2023-04-01T20:36:45;17.13;;;11.13;;
47603;SDS011;33326;51.116;6.900;2023-04-01T20:42:00;17.77;;;11.35;;
47603;SDS011;33326;51.116;6.900;2023-04-01T20:47:16;23.27;;;13.15;;
47603;SDS011;33326;51.116;6.900;2023-04-01T20:57:31;24.90;;;12.57;;
47603;SDS011;33326;51.116;6.900;2023-04-01T21:02:45;19.23;;;11.55;;
47603;SDS011;33326;51.116;6.900;2023-04-01T21:07:55;22.38;;;12.25;;
47603;SDS011;33326;51.116;6.900;2023-04-01T21:13:07;26.70;;;13.45;;
47603;SDS011;33326;51.116;6.900;2023-04-01T21:18:23;23.23;;;11.85;;
47603;SDS011;33326;51.116;6.900;2023-04-01T21:23:50;27.38;;;12.82;;
47603;SDS011;33326;51.116;6.900;2023-04-01T21:34:42;43.53;;;15.07;;
47603;SDS011;33326;51.116;6.900;2023-04-01T21:39:58;26.75;;;13.75;;
47603;SDS011;33326;51.116;6.900;2023-04-01T21:45:21;42.00;;;15.82;;
47603;SDS011;33326;51.116;6.900;2023-04-01T21:50:45;45.67;;;17.60;;
47603;SDS011;33326;51.116;6.900;2023-04-01T22:07:34;32.33;;;16.38;;
47603;SDS011;33326;51.116;6.900;2023-04-01T22:12:44;34.70;;;15.17;;
47603;SDS011;33326;51.116;6.900;2023-04-01T22:17:57;21.55;;;12.40;;
47603;SDS011;33326;51.116;6.900;2023-04-01T22:23:08;25.02;;;13.27;;
47603;SDS011;33326;51.116;6.900;2023-04-01T22:28:16;31.63;;;14.60;;
47603;SDS011;33326;51.116;6.900;2023-04-01T22:33:26;32.58;;;15.10;;
47603;SDS011;33326;51.116;6.900;2023-04-01T22:38:38;21.75;;;13.35;;
47603;SDS011;33326;51.116;6.900;2023-04-01T22:43:56;25.92;;;14.88;;
47603;SDS011;33326;51.116;6.900;2023-04-01T22:49:02;22.17;;;13.80;;
47603;SDS011;33326;51.116;6.900;2023-04-01T22:54:11;28.92;;;15.18;;
47603;SDS011;33326;51.116;6.900;2023-04-01T22:59:19;26.65;;;14.43;;
47603;SDS011;33326;51.116;6.900;2023-04-01T23:04:31;23.02;;;12.80;;
47603;SDS011;33326;51.116;6.900;2023-04-01T23:09:37;16.35;;;11.10;;
47603;SDS011;33326;51.116;6.900;2023-04-01T23:14:41;15.98;;;9.80;;
47603;SDS011;33326;51.116;6.900;2023-04-01T23:19:52;12.93;;;9.20;;
47603;SDS011;33326;51.116;6.900;2023-04-01T23:25:04;12.98;;;8.68;;
47603;SDS011;33326;51.116;6.900;2023-04-01T23:35:52;9.05;;;6.20;;
47603;SDS011;33326;51.116;6.900;2023-04-01T23:40:56;7.13;;;5.28;;
47603;SDS011;33326;51.116;6.900;2023-04-01T23:45:58;8.57;;;6.20;;
47603;SDS011;33326;51.116;6.900;2023-04-01T23:51:05;8.07;;;5.50;;
47603;SDS011;33326;51.116;6.900;2023-04-01T23:56:16;8.38;;;5.20;;
